createdAt,value
2022-10-02T00:00:06.485Z,340.24
2022-10-02T00:01:06.517Z,340.24
2022-10-02T00:02:06.485Z,340.24
2022-10-02T00:03:06.513Z,340.24
2022-10-02T00:04:06.548Z,340.24
2022-10-02T00:05:06.493Z,340.24
2022-10-02T00:06:06.477Z,340.24
2022-10-02T00:07:06.489Z,340.24
2022-10-02T00:08:06.540Z,340.24
2022-10-02T00:09:06.489Z,340.24
2022-10-02T00:10:06.482Z,340.24
2022-10-02T00:11:06.498Z,340.24
2022-10-02T00:12:06.494Z,340.24
2022-10-02T00:13:06.506Z,340.24
2022-10-02T00:14:06.495Z,340.24
2022-10-02T00:15:06.493Z,340.24
2022-10-02T00:16:06.521Z,340.24
2022-10-02T00:17:06.504Z,340.24
2022-10-02T00:18:06.499Z,340.24
2022-10-02T00:19:06.536Z,340.24
2022-10-02T00:20:06.501Z,340.24
2022-10-02T00:21:06.512Z,340.24
2022-10-02T00:22:06.498Z,340.24
2022-10-02T00:23:06.500Z,340.24
2022-10-02T00:24:06.498Z,340.24
2022-10-02T00:25:06.502Z,340.24
2022-10-02T00:26:06.500Z,340.24
2022-10-02T00:27:06.509Z,340.24
2022-10-02T00:28:06.534Z,340.24
2022-10-02T00:29:06.508Z,340.24
2022-10-02T00:30:06.511Z,340.24
2022-10-02T00:31:06.511Z,340.24
2022-10-02T00:32:06.546Z,340.24
2022-10-02T00:33:06.505Z,340.24
2022-10-02T00:34:06.511Z,340.24
2022-10-02T00:35:06.529Z,340.24
2022-10-02T00:36:06.511Z,340.24
2022-10-02T00:37:06.508Z,340.24
2022-10-02T00:38:06.503Z,340.24
2022-10-02T00:39:06.515Z,340.24
2022-10-02T00:40:06.520Z,340.24
2022-10-02T00:41:06.523Z,340.24
2022-10-02T00:42:06.512Z,340.24
2022-10-02T00:43:06.518Z,340.24
2022-10-02T00:44:06.521Z,340.24
2022-10-02T00:45:06.518Z,340.24
2022-10-02T00:46:06.567Z,340.24
2022-10-02T00:47:06.522Z,340.24
2022-10-02T00:48:06.521Z,340.24
2022-10-02T00:49:06.518Z,340.24
2022-10-02T00:50:06.531Z,340.24
2022-10-02T00:51:06.536Z,340.24
2022-10-02T00:52:06.520Z,340.24
2022-10-02T00:53:06.519Z,340.24
2022-10-02T00:54:06.519Z,340.24
2022-10-02T00:55:06.526Z,340.24
2022-10-02T00:56:06.520Z,340.24
2022-10-02T00:57:06.527Z,340.24
2022-10-02T00:58:06.525Z,340.24
2022-10-02T00:59:06.521Z,340.24
2022-10-02T01:00:06.526Z,340.24
2022-10-02T01:01:06.537Z,340.24
2022-10-02T01:02:06.559Z,340.24
2022-10-02T01:03:06.536Z,340.24
2022-10-02T01:04:06.534Z,340.24
2022-10-02T01:05:06.526Z,340.24
2022-10-02T01:06:06.530Z,340.24
2022-10-02T01:07:06.534Z,340.24
2022-10-02T01:08:06.522Z,340.24
2022-10-02T01:09:06.523Z,340.24
2022-10-02T01:10:06.524Z,340.24
2022-10-02T01:11:06.531Z,340.24
2022-10-02T01:12:06.522Z,340.24
2022-10-02T01:13:06.527Z,340.24
2022-10-02T01:14:06.519Z,340.24
2022-10-02T01:15:06.537Z,340.24
2022-10-02T01:16:06.577Z,340.24
2022-10-02T01:17:06.550Z,340.24
2022-10-02T01:18:06.536Z,340.24
2022-10-02T01:19:06.534Z,340.24
2022-10-02T01:20:06.543Z,340.24
2022-10-02T01:21:06.535Z,340.24
2022-10-02T01:22:06.542Z,340.24
2022-10-02T01:23:06.569Z,340.24
2022-10-02T01:24:06.549Z,340.24
2022-10-02T01:25:06.550Z,340.24
2022-10-02T01:26:06.548Z,340.24
2022-10-02T01:27:06.553Z,340.24
2022-10-02T01:28:06.620Z,340.24
2022-10-02T01:29:06.559Z,340.24
2022-10-02T01:30:06.561Z,340.24
2022-10-02T01:31:06.563Z,340.24
2022-10-02T01:32:06.561Z,340.24
2022-10-02T01:33:06.580Z,340.24
2022-10-02T01:34:06.559Z,340.24
2022-10-02T01:35:06.567Z,340.24
2022-10-02T01:36:06.568Z,340.24
2022-10-02T01:37:06.574Z,340.24
2022-10-02T01:38:06.579Z,340.24
2022-10-02T01:39:06.599Z,340.24
2022-10-02T01:40:06.577Z,340.24
2022-10-02T01:41:06.581Z,340.24
2022-10-02T01:42:06.579Z,340.24
2022-10-02T01:43:06.598Z,340.24
2022-10-02T01:44:06.576Z,340.24
2022-10-02T01:45:06.580Z,340.24
2022-10-02T01:46:06.631Z,340.24
2022-10-02T01:47:06.587Z,340.24
2022-10-02T01:48:06.597Z,340.24
2022-10-02T01:49:06.588Z,340.24
2022-10-02T01:50:06.579Z,340.24
2022-10-02T01:51:06.598Z,340.24
2022-10-02T01:52:06.589Z,340.24
2022-10-02T01:53:06.606Z,340.24
2022-10-02T01:54:06.601Z,340.24
2022-10-02T01:55:06.617Z,340.24
2022-10-02T01:56:06.608Z,340.24
2022-10-02T01:57:06.600Z,340.24
2022-10-02T01:58:06.604Z,340.24
2022-10-02T01:59:06.605Z,340.24
2022-10-02T02:00:06.613Z,340.24
2022-10-02T02:01:06.689Z,340.24
2022-10-02T02:02:06.665Z,340.24
2022-10-02T02:03:06.626Z,340.24
2022-10-02T02:04:06.617Z,340.24
2022-10-02T02:05:06.612Z,340.24
2022-10-02T02:06:06.615Z,340.24
2022-10-02T02:07:06.622Z,340.24
2022-10-02T02:08:06.623Z,340.24
2022-10-02T02:09:06.632Z,340.24
2022-10-02T02:10:06.624Z,340.24
2022-10-02T02:11:06.650Z,340.24
2022-10-02T02:12:06.634Z,340.24
2022-10-02T02:13:06.625Z,340.24
2022-10-02T02:14:06.632Z,340.24
2022-10-02T02:15:06.652Z,340.24
2022-10-02T02:16:06.710Z,340.24
2022-10-02T02:17:06.647Z,340.24
2022-10-02T02:18:06.647Z,340.24
2022-10-02T02:19:06.653Z,340.24
2022-10-02T02:20:06.652Z,340.24
2022-10-02T02:21:06.654Z,340.24
2022-10-02T02:22:06.660Z,340.24
2022-10-02T02:23:06.654Z,340.24
2022-10-02T02:24:06.647Z,340.24
2022-10-02T02:25:06.653Z,340.24
2022-10-02T02:26:06.644Z,340.24
2022-10-02T02:27:06.693Z,340.24
2022-10-02T02:28:06.694Z,340.24
2022-10-02T02:29:06.663Z,340.24
2022-10-02T02:30:06.658Z,340.24
2022-10-02T02:31:06.671Z,340.24
2022-10-02T02:32:06.690Z,340.24
2022-10-02T02:33:06.668Z,340.24
2022-10-02T02:34:06.668Z,340.24
2022-10-02T02:35:06.675Z,340.24
2022-10-02T02:36:06.679Z,340.24
2022-10-02T02:37:06.694Z,340.24
2022-10-02T02:38:06.676Z,340.24
2022-10-02T02:39:06.674Z,340.24
2022-10-02T02:40:06.693Z,340.24
2022-10-02T02:41:06.681Z,340.24
2022-10-02T02:42:06.697Z,340.24
2022-10-02T02:43:06.706Z,340.24
2022-10-02T02:44:06.685Z,340.24
2022-10-02T02:45:06.695Z,340.24
2022-10-02T02:46:06.779Z,340.24
2022-10-02T02:47:06.772Z,340.24
2022-10-02T02:48:06.696Z,340.24
2022-10-02T02:49:06.699Z,340.24
2022-10-02T02:50:06.694Z,340.24
2022-10-02T02:51:06.689Z,340.24
2022-10-02T02:52:06.697Z,340.24
2022-10-02T02:53:06.702Z,340.24
2022-10-02T02:54:06.704Z,340.24
2022-10-02T02:55:06.700Z,340.24
2022-10-02T02:56:06.698Z,340.24
2022-10-02T02:57:06.732Z,340.24
2022-10-02T02:58:06.697Z,340.24
2022-10-02T02:59:06.729Z,340.24
2022-10-02T03:00:06.704Z,340.24
2022-10-02T03:01:06.775Z,340.24
2022-10-02T03:02:06.814Z,340.24
2022-10-02T03:03:06.700Z,340.24
2022-10-02T03:04:06.701Z,340.24
2022-10-02T03:05:06.704Z,340.24
2022-10-02T03:06:06.714Z,340.24
2022-10-02T03:07:06.708Z,340.24
2022-10-02T03:08:06.714Z,340.24
2022-10-02T03:09:06.707Z,340.24
2022-10-02T03:10:06.725Z,340.24
2022-10-02T03:11:06.722Z,340.24
2022-10-02T03:12:06.717Z,340.24
2022-10-02T03:13:06.715Z,340.24
2022-10-02T03:14:06.716Z,340.24
2022-10-02T03:15:06.745Z,340.24
2022-10-02T03:16:06.768Z,340.24
2022-10-02T03:17:06.725Z,340.24
2022-10-02T03:18:06.723Z,340.24
2022-10-02T03:19:06.722Z,340.24
2022-10-02T03:20:06.726Z,340.24
2022-10-02T03:21:06.731Z,340.24
2022-10-02T03:22:06.733Z,340.24
2022-10-02T03:23:06.720Z,241.41
2022-10-02T03:24:06.741Z,241.41
2022-10-02T03:25:06.729Z,241.41
2022-10-02T03:26:06.734Z,241.41
2022-10-02T03:27:06.733Z,241.41
2022-10-02T03:28:06.783Z,241.41
2022-10-02T03:29:06.791Z,241.41
2022-10-02T03:30:06.729Z,241.41
2022-10-02T03:31:06.826Z,241.41
2022-10-02T03:32:06.741Z,241.41
2022-10-02T03:33:06.729Z,241.41
2022-10-02T03:34:06.725Z,241.41
2022-10-02T03:35:06.738Z,241.41
2022-10-02T03:36:06.738Z,241.41
2022-10-02T03:37:06.741Z,241.41
2022-10-02T03:38:06.734Z,241.41
2022-10-02T03:39:24.030Z,241.41
2022-10-02T03:40:06.745Z,241.41
2022-10-02T03:41:06.740Z,241.41
2022-10-02T03:42:06.743Z,241.41
2022-10-02T03:43:06.739Z,241.41
2022-10-02T03:44:06.752Z,241.41
2022-10-02T03:45:06.740Z,241.41
2022-10-02T03:46:06.796Z,241.41
2022-10-02T03:47:06.768Z,241.41
2022-10-02T03:48:06.748Z,241.41
2022-10-02T03:49:06.742Z,241.41
2022-10-02T03:50:06.745Z,241.41
2022-10-02T03:51:06.753Z,241.41
2022-10-02T03:52:06.742Z,241.41
2022-10-02T03:53:06.752Z,241.41
2022-10-02T03:54:06.752Z,241.41
2022-10-02T03:55:06.746Z,241.41
2022-10-02T03:56:06.753Z,241.41
2022-10-02T03:57:06.751Z,241.41
2022-10-02T03:58:06.757Z,241.41
2022-10-02T03:59:06.750Z,241.41
2022-10-02T04:00:06.754Z,241.41
2022-10-02T04:01:06.747Z,241.41
2022-10-02T04:02:06.789Z,241.41
2022-10-02T04:03:06.773Z,241.41
2022-10-02T04:04:06.748Z,241.41
2022-10-02T04:05:06.755Z,241.41
2022-10-02T04:06:06.753Z,241.41
2022-10-02T04:07:06.756Z,241.41
2022-10-02T04:08:06.754Z,241.41
2022-10-02T04:09:06.762Z,241.41
2022-10-02T04:10:06.760Z,241.41
2022-10-02T04:11:06.763Z,241.41
2022-10-02T04:12:06.762Z,241.41
2022-10-02T04:13:06.766Z,241.41
2022-10-02T04:14:06.751Z,241.41
2022-10-02T04:15:06.751Z,241.41
2022-10-02T04:16:06.825Z,241.41
2022-10-02T04:17:06.764Z,241.41
2022-10-02T04:18:06.757Z,241.41
2022-10-02T04:19:06.783Z,241.41
2022-10-02T04:20:06.762Z,241.41
2022-10-02T04:21:06.772Z,241.41
2022-10-02T04:22:06.759Z,241.41
2022-10-02T04:23:06.769Z,241.41
2022-10-02T04:24:06.774Z,241.41
2022-10-02T04:25:06.766Z,241.41
2022-10-02T04:26:06.764Z,241.41
2022-10-02T04:27:06.754Z,241.41
2022-10-02T04:28:06.795Z,241.41
2022-10-02T04:29:06.775Z,241.41
2022-10-02T04:30:06.761Z,241.41
2022-10-02T04:31:06.803Z,241.41
2022-10-02T04:32:06.770Z,241.41
2022-10-02T04:33:06.776Z,241.41
2022-10-02T04:34:06.763Z,241.41
2022-10-02T04:35:06.786Z,241.41
2022-10-02T04:36:06.768Z,241.41
2022-10-02T04:37:06.774Z,241.41
2022-10-02T04:38:06.757Z,241.41
2022-10-02T04:39:06.766Z,241.41
2022-10-02T04:40:06.764Z,241.41
2022-10-02T04:41:06.776Z,241.41
2022-10-02T04:42:06.761Z,241.41
2022-10-02T04:43:06.778Z,241.41
2022-10-02T04:44:06.776Z,241.41
2022-10-02T04:45:06.774Z,241.41
2022-10-02T04:46:06.815Z,241.41
2022-10-02T04:47:06.773Z,241.41
2022-10-02T04:48:06.764Z,241.41
2022-10-02T04:49:06.776Z,241.41
2022-10-02T04:50:06.773Z,241.41
2022-10-02T04:51:06.791Z,241.41
2022-10-02T04:52:06.773Z,241.41
2022-10-02T04:53:06.770Z,241.41
2022-10-02T04:54:06.774Z,241.41
2022-10-02T04:55:06.774Z,241.41
2022-10-02T04:56:06.767Z,241.41
2022-10-02T04:57:06.773Z,241.41
2022-10-02T04:58:06.768Z,241.41
2022-10-02T04:59:06.773Z,241.41
2022-10-02T05:00:06.769Z,241.41
2022-10-02T05:01:06.810Z,241.41
2022-10-02T05:02:06.827Z,241.41
2022-10-02T05:03:06.777Z,241.41
2022-10-02T05:04:06.779Z,241.41
2022-10-02T05:05:06.779Z,241.41
2022-10-02T05:06:06.765Z,241.41
2022-10-02T05:07:06.793Z,241.41
2022-10-02T05:08:06.771Z,241.41
2022-10-02T05:09:06.768Z,241.41
2022-10-02T05:10:06.778Z,241.41
2022-10-02T05:11:06.781Z,241.41
2022-10-02T05:12:06.785Z,241.41
2022-10-02T05:13:06.779Z,241.41
2022-10-02T05:14:06.785Z,241.41
2022-10-02T05:15:06.775Z,241.41
2022-10-02T05:16:06.845Z,241.41
2022-10-02T05:17:06.778Z,241.41
2022-10-02T05:18:06.792Z,241.41
2022-10-02T05:19:06.785Z,241.41
2022-10-02T05:20:06.782Z,241.41
2022-10-02T05:21:06.786Z,241.41
2022-10-02T05:22:06.779Z,241.41
2022-10-02T05:23:06.798Z,241.41
2022-10-02T05:24:06.782Z,241.41
2022-10-02T05:25:06.788Z,241.41
2022-10-02T05:26:09.640Z,241.41
2022-10-02T05:27:06.802Z,241.41
2022-10-02T05:28:06.812Z,241.41
2022-10-02T05:29:06.773Z,241.41
2022-10-02T05:30:06.786Z,241.41
2022-10-02T05:31:06.876Z,241.41
2022-10-02T05:32:06.781Z,241.41
2022-10-02T05:33:06.784Z,241.41
2022-10-02T05:34:06.783Z,241.41
2022-10-02T05:35:06.787Z,241.41
2022-10-02T05:36:06.788Z,241.41
2022-10-02T05:37:06.786Z,241.41
2022-10-02T05:38:06.788Z,241.41
2022-10-02T05:39:06.869Z,241.41
2022-10-02T05:40:06.784Z,241.41
2022-10-02T05:41:06.792Z,241.41
2022-10-02T05:42:06.788Z,241.41
2022-10-02T05:43:06.791Z,241.41
2022-10-02T05:44:06.792Z,241.41
2022-10-02T05:45:06.787Z,241.41
2022-10-02T05:46:06.801Z,241.41
2022-10-02T05:47:06.806Z,241.41
2022-10-02T05:48:06.785Z,241.41
2022-10-02T05:49:06.795Z,241.41
2022-10-02T05:50:06.794Z,241.41
2022-10-02T05:51:06.808Z,241.41
2022-10-02T05:52:06.802Z,241.41
2022-10-02T05:53:06.801Z,241.41
2022-10-02T05:54:06.815Z,241.41
2022-10-02T05:55:06.832Z,241.41
2022-10-02T05:56:06.802Z,241.41
2022-10-02T05:57:06.814Z,241.41
2022-10-02T05:58:06.807Z,241.41
2022-10-02T05:59:06.823Z,241.41
2022-10-02T06:00:06.816Z,241.41
2022-10-02T06:01:06.888Z,241.41
2022-10-02T06:02:06.875Z,241.41
2022-10-02T06:03:06.824Z,241.41
2022-10-02T06:04:06.829Z,241.41
2022-10-02T06:05:06.822Z,241.41
2022-10-02T06:06:06.816Z,241.41
2022-10-02T06:07:06.827Z,241.41
2022-10-02T06:08:06.820Z,241.41
2022-10-02T06:09:06.827Z,241.41
2022-10-02T06:10:06.824Z,241.41
2022-10-02T06:11:06.852Z,241.41
2022-10-02T06:12:06.826Z,241.41
2022-10-02T06:13:06.838Z,241.41
2022-10-02T06:14:06.823Z,241.41
2022-10-02T06:15:06.835Z,241.41
2022-10-02T06:16:06.919Z,241.41
2022-10-02T06:17:06.836Z,241.41
2022-10-02T06:18:06.834Z,241.41
2022-10-02T06:19:06.838Z,241.41
2022-10-02T06:20:06.867Z,241.41
2022-10-02T06:21:06.842Z,241.41
2022-10-02T06:22:06.845Z,241.41
2022-10-02T06:23:06.850Z,241.41
2022-10-02T06:24:06.839Z,241.41
2022-10-02T06:25:06.857Z,241.41
2022-10-02T06:26:06.839Z,241.41
2022-10-02T06:27:06.857Z,241.41
2022-10-02T06:28:06.885Z,241.41
2022-10-02T06:29:06.852Z,241.41
2022-10-02T06:30:06.842Z,241.41
2022-10-02T06:31:06.906Z,241.41
2022-10-02T06:32:06.850Z,241.41
2022-10-02T06:33:06.855Z,241.41
2022-10-02T06:34:06.857Z,241.41
2022-10-02T06:35:06.855Z,241.41
2022-10-02T06:36:06.860Z,241.41
2022-10-02T06:37:06.865Z,241.41
2022-10-02T06:38:06.857Z,241.41
2022-10-02T06:39:06.869Z,241.41
2022-10-02T06:40:06.859Z,241.41
2022-10-02T06:41:06.865Z,241.41
2022-10-02T06:42:06.859Z,241.41
2022-10-02T06:43:06.893Z,241.41
2022-10-02T06:44:06.870Z,241.41
2022-10-02T06:45:06.871Z,241.41
2022-10-02T06:46:06.940Z,241.41
2022-10-02T06:47:06.875Z,241.41
2022-10-02T06:48:06.875Z,241.41
2022-10-02T06:49:06.869Z,241.41
2022-10-02T06:50:06.872Z,241.41
2022-10-02T06:51:06.877Z,241.41
2022-10-02T06:52:06.871Z,241.41
2022-10-02T06:53:06.876Z,241.41
2022-10-02T06:54:06.871Z,241.41
2022-10-02T06:55:06.879Z,241.41
2022-10-02T06:56:06.880Z,241.41
2022-10-02T06:57:06.892Z,241.41
2022-10-02T06:58:06.883Z,241.41
2022-10-02T06:59:06.908Z,241.41
2022-10-02T07:00:06.886Z,241.41
2022-10-02T07:01:07.068Z,241.41
2022-10-02T07:02:06.925Z,241.41
2022-10-02T07:03:06.890Z,241.41
2022-10-02T07:04:06.890Z,241.41
2022-10-02T07:05:06.890Z,241.41
2022-10-02T07:06:06.933Z,241.41
2022-10-02T07:07:06.892Z,241.41
2022-10-02T07:08:06.894Z,241.41
2022-10-02T07:09:06.891Z,241.41
2022-10-02T07:10:06.893Z,241.41
2022-10-02T07:11:06.891Z,241.41
2022-10-02T07:12:06.895Z,241.41
2022-10-02T07:13:06.901Z,241.41
2022-10-02T07:14:06.896Z,241.41
2022-10-02T07:15:06.923Z,241.41
2022-10-02T07:16:07.056Z,241.41
2022-10-02T07:17:06.910Z,241.41
2022-10-02T07:18:06.900Z,241.41
2022-10-02T07:19:06.915Z,241.41
2022-10-02T07:20:06.910Z,241.41
2022-10-02T07:21:06.911Z,241.41
2022-10-02T07:22:20.482Z,241.41
2022-10-02T07:23:07.832Z,241.41
2022-10-02T07:24:06.912Z,241.41
2022-10-02T07:25:06.924Z,241.41
2022-10-02T07:26:06.913Z,241.41
2022-10-02T07:27:06.920Z,241.41
2022-10-02T07:28:06.969Z,241.41
2022-10-02T07:29:06.922Z,241.41
2022-10-02T07:30:06.925Z,241.41
2022-10-02T07:31:07.094Z,241.41
2022-10-02T07:32:06.930Z,241.41
2022-10-02T07:33:06.933Z,241.41
2022-10-02T07:34:06.926Z,241.41
2022-10-02T07:35:06.928Z,241.41
2022-10-02T07:36:06.934Z,241.41
2022-10-02T07:37:06.936Z,241.41
2022-10-02T07:38:06.925Z,241.41
2022-10-02T07:39:06.935Z,241.41
2022-10-02T07:40:06.937Z,241.41
2022-10-02T07:41:06.937Z,241.41
2022-10-02T07:42:06.936Z,241.41
2022-10-02T07:43:06.944Z,241.41
2022-10-02T07:44:06.929Z,241.41
2022-10-02T07:45:06.940Z,241.41
2022-10-02T07:46:09.499Z,241.41
2022-10-02T07:47:06.963Z,241.41
2022-10-02T07:48:06.942Z,241.41
2022-10-02T07:49:06.943Z,241.41
2022-10-02T07:50:06.937Z,241.41
2022-10-02T07:51:06.942Z,241.41
2022-10-02T07:52:06.939Z,241.41
2022-10-02T07:53:06.940Z,241.41
2022-10-02T07:54:06.937Z,241.41
2022-10-02T07:55:06.946Z,241.41
2022-10-02T07:56:06.951Z,241.41
2022-10-02T07:57:09.840Z,241.41
2022-10-02T07:58:06.943Z,241.41
2022-10-02T07:59:06.957Z,241.41
2022-10-02T08:00:06.957Z,241.41
2022-10-02T08:01:06.953Z,241.41
2022-10-02T08:02:07.018Z,241.41
2022-10-02T08:03:07.016Z,241.41
2022-10-02T08:04:06.983Z,241.41
2022-10-02T08:05:06.963Z,241.41
2022-10-02T08:06:06.948Z,241.41
2022-10-02T08:07:06.959Z,241.41
2022-10-02T08:08:06.953Z,241.41
2022-10-02T08:09:06.966Z,241.41
2022-10-02T08:10:06.966Z,241.41
2022-10-02T08:11:06.964Z,241.41
2022-10-02T08:12:06.967Z,241.41
2022-10-02T08:13:06.970Z,241.41
2022-10-02T08:14:06.970Z,241.41
2022-10-02T08:15:06.964Z,241.41
2022-10-02T08:16:07.011Z,241.41
2022-10-02T08:17:06.975Z,241.41
2022-10-02T08:18:23.134Z,241.41
2022-10-02T08:19:07.043Z,241.41
2022-10-02T08:20:06.969Z,300.71
2022-10-02T08:21:06.977Z,297.88
2022-10-02T08:22:06.971Z,295.06
2022-10-02T08:23:06.985Z,295.06
2022-10-02T08:24:06.976Z,295.06
2022-10-02T08:25:06.976Z,295.06
2022-10-02T08:26:06.996Z,295.06
2022-10-02T08:27:06.975Z,295.06
2022-10-02T08:28:07.014Z,295.06
2022-10-02T08:29:06.989Z,295.06
2022-10-02T08:30:06.987Z,295.06
2022-10-02T08:31:06.986Z,295.06
2022-10-02T08:32:06.984Z,295.06
2022-10-02T08:33:06.989Z,295.06
2022-10-02T08:34:06.998Z,295.06
2022-10-02T08:35:07.009Z,295.06
2022-10-02T08:36:06.997Z,295.06
2022-10-02T08:37:06.999Z,295.06
2022-10-02T08:38:06.999Z,295.06
2022-10-02T08:39:07.000Z,295.06
2022-10-02T08:40:06.995Z,295.06
2022-10-02T08:41:07.005Z,295.06
2022-10-02T08:42:07.013Z,295.06
2022-10-02T08:43:07.002Z,295.06
2022-10-02T08:44:07.009Z,295.06
2022-10-02T08:45:07.010Z,295.06
2022-10-02T08:46:07.079Z,323.29
2022-10-02T08:47:07.009Z,289.41
2022-10-02T08:48:07.011Z,289.41
2022-10-02T08:49:07.017Z,289.41
2022-10-02T08:50:07.017Z,289.41
2022-10-02T08:51:07.035Z,289.41
2022-10-02T08:52:07.010Z,289.41
2022-10-02T08:53:07.018Z,289.41
2022-10-02T08:54:07.013Z,295.06
2022-10-02T08:55:07.019Z,288
2022-10-02T08:56:07.025Z,273.88
2022-10-02T08:57:07.023Z,273.88
2022-10-02T08:58:07.020Z,273.88
2022-10-02T08:59:07.030Z,273.88
2022-10-02T09:00:07.040Z,273.88
2022-10-02T09:01:07.085Z,273.88
2022-10-02T09:02:07.070Z,273.88
2022-10-02T09:03:07.034Z,273.88
2022-10-02T09:04:07.034Z,273.88
2022-10-02T09:05:07.028Z,273.88
2022-10-02T09:06:07.036Z,273.88
2022-10-02T09:07:07.046Z,273.88
2022-10-02T09:08:07.040Z,273.88
2022-10-02T09:09:07.039Z,273.88
2022-10-02T09:10:07.025Z,273.88
2022-10-02T09:11:07.028Z,273.88
2022-10-02T09:12:07.037Z,69.18
2022-10-02T09:13:07.042Z,69.18
2022-10-02T09:14:07.041Z,69.18
2022-10-02T09:15:07.040Z,69.18
2022-10-02T09:16:07.103Z,69.18
2022-10-02T09:17:07.052Z,69.18
2022-10-02T09:18:07.040Z,74.82
2022-10-02T09:19:07.052Z,74.82
2022-10-02T09:20:07.041Z,74.82
2022-10-02T09:21:11.381Z,74.82
2022-10-02T09:22:07.045Z,74.82
2022-10-02T09:23:07.109Z,74.82
2022-10-02T09:24:07.041Z,74.82
2022-10-02T09:25:07.045Z,74.82
2022-10-02T09:26:07.043Z,74.82
2022-10-02T09:27:07.051Z,74.82
2022-10-02T09:28:07.079Z,74.82
2022-10-02T09:29:07.050Z,74.82
2022-10-02T09:30:07.053Z,74.82
2022-10-02T09:31:07.058Z,74.82
2022-10-02T09:32:07.059Z,74.82
2022-10-02T09:33:07.059Z,74.82
2022-10-02T09:34:07.061Z,74.82
2022-10-02T09:35:07.054Z,74.82
2022-10-02T09:36:07.059Z,74.82
2022-10-02T09:37:07.055Z,74.82
2022-10-02T09:38:07.069Z,74.82
2022-10-02T09:39:07.086Z,74.82
2022-10-02T09:40:07.070Z,74.82
2022-10-02T09:41:07.058Z,74.82
2022-10-02T09:42:07.059Z,74.82
2022-10-02T09:43:07.074Z,74.82
2022-10-02T09:44:07.067Z,74.82
2022-10-02T09:45:07.071Z,74.82
2022-10-02T09:46:07.125Z,74.82
2022-10-02T09:47:07.053Z,74.82
2022-10-02T09:48:07.073Z,74.82
2022-10-02T09:49:07.075Z,74.82
2022-10-02T09:50:07.071Z,74.82
2022-10-02T09:51:07.073Z,74.82
2022-10-02T09:52:07.071Z,74.82
2022-10-02T09:53:07.063Z,74.82
2022-10-02T09:54:07.072Z,74.82
2022-10-02T09:55:07.088Z,74.82
2022-10-02T09:56:07.068Z,74.82
2022-10-02T09:57:07.075Z,74.82
2022-10-02T09:58:07.069Z,74.82
2022-10-02T09:59:07.069Z,74.82
2022-10-02T10:00:07.067Z,74.82
2022-10-02T10:01:07.091Z,74.82
2022-10-02T10:02:07.109Z,74.82
2022-10-02T10:03:07.076Z,74.82
2022-10-02T10:04:07.069Z,74.82
2022-10-02T10:05:07.194Z,74.82
2022-10-02T10:06:07.074Z,74.82
2022-10-02T10:07:07.064Z,74.82
2022-10-02T10:08:07.076Z,74.82
2022-10-02T10:09:07.082Z,74.82
2022-10-02T10:10:07.075Z,74.82
2022-10-02T10:11:07.101Z,74.82
2022-10-02T10:12:07.076Z,74.82
2022-10-02T10:13:07.081Z,74.82
2022-10-02T10:14:07.077Z,74.82
2022-10-02T10:15:09.088Z,74.82
2022-10-02T10:16:07.096Z,74.82
2022-10-02T10:17:07.085Z,74.82
2022-10-02T10:18:07.078Z,74.82
2022-10-02T10:19:07.085Z,74.82
2022-10-02T10:20:07.089Z,74.82
2022-10-02T10:21:07.086Z,74.82
2022-10-02T10:22:07.078Z,74.82
2022-10-02T10:23:07.092Z,74.82
2022-10-02T10:24:07.084Z,74.82
2022-10-02T10:25:07.079Z,74.82
2022-10-02T10:26:07.084Z,74.82
2022-10-02T10:27:08.185Z,74.82
2022-10-02T10:28:07.105Z,74.82
2022-10-02T10:29:07.080Z,74.82
2022-10-02T10:30:07.083Z,74.82
2022-10-02T10:31:07.082Z,74.82
2022-10-02T10:32:07.117Z,74.82
2022-10-02T10:33:07.084Z,74.82
2022-10-02T10:34:07.088Z,74.82
2022-10-02T10:35:07.092Z,74.82
2022-10-02T10:36:07.090Z,74.82
2022-10-02T10:37:07.086Z,74.82
2022-10-02T10:38:07.088Z,74.82
2022-10-02T10:39:07.091Z,74.82
2022-10-02T10:40:07.099Z,74.82
2022-10-02T10:41:07.091Z,74.82
2022-10-02T10:42:07.093Z,74.82
2022-10-02T10:43:08.445Z,74.82
2022-10-02T10:44:07.098Z,74.82
2022-10-02T10:45:07.091Z,74.82
2022-10-02T10:46:07.181Z,74.82
2022-10-02T10:47:07.104Z,74.82
2022-10-02T10:48:07.098Z,74.82
2022-10-02T10:49:07.098Z,74.82
2022-10-02T10:50:07.113Z,74.82
2022-10-02T10:51:07.099Z,74.82
2022-10-02T10:52:07.103Z,74.82
2022-10-02T10:53:07.111Z,74.82
2022-10-02T10:54:07.104Z,74.82
2022-10-02T10:55:07.120Z,74.82
2022-10-02T10:56:07.103Z,74.82
2022-10-02T10:57:07.106Z,74.82
2022-10-02T10:58:07.114Z,74.82
2022-10-02T10:59:07.134Z,74.82
2022-10-02T11:00:07.123Z,74.82
2022-10-02T11:01:07.212Z,74.82
2022-10-02T11:02:07.124Z,74.82
2022-10-02T11:03:07.116Z,74.82
2022-10-02T11:04:07.114Z,74.82
2022-10-02T11:05:07.111Z,74.82
2022-10-02T11:06:07.111Z,74.82
2022-10-02T11:07:07.115Z,74.82
2022-10-02T11:08:07.120Z,74.82
2022-10-02T11:09:07.115Z,74.82
2022-10-02T11:10:07.128Z,74.82
2022-10-02T11:11:07.116Z,74.82
2022-10-02T11:12:09.628Z,74.82
2022-10-02T11:13:07.124Z,74.82
2022-10-02T11:14:07.119Z,74.82
2022-10-02T11:15:07.136Z,74.82
2022-10-02T11:16:07.203Z,74.82
2022-10-02T11:17:07.124Z,74.82
2022-10-02T11:18:07.118Z,74.82
2022-10-02T11:19:07.117Z,74.82
2022-10-02T11:20:07.113Z,74.82
2022-10-02T11:21:07.122Z,74.82
2022-10-02T11:22:07.132Z,74.82
2022-10-02T11:23:07.112Z,74.82
2022-10-02T11:24:07.130Z,74.82
2022-10-02T11:25:10.631Z,74.82
2022-10-02T11:26:07.131Z,74.82
2022-10-02T11:27:07.128Z,74.82
2022-10-02T11:28:07.167Z,74.82
2022-10-02T11:29:07.136Z,74.82
2022-10-02T11:30:07.136Z,74.82
2022-10-02T11:31:07.149Z,74.82
2022-10-02T11:32:07.189Z,74.82
2022-10-02T11:33:07.140Z,74.82
2022-10-02T11:34:07.123Z,74.82
2022-10-02T11:35:07.139Z,74.82
2022-10-02T11:36:07.139Z,74.82
2022-10-02T11:37:07.131Z,360
2022-10-02T11:38:07.135Z,357.18
2022-10-02T11:39:07.138Z,360
2022-10-02T11:40:07.132Z,360
2022-10-02T11:41:07.145Z,360
2022-10-02T11:42:07.139Z,360
2022-10-02T11:43:07.145Z,7.06
2022-10-02T11:44:07.143Z,5.65
2022-10-02T11:45:07.144Z,7.06
2022-10-02T11:46:07.192Z,4.24
2022-10-02T11:47:07.161Z,4.24
2022-10-02T11:48:07.147Z,4.24
2022-10-02T11:49:07.136Z,7.06
2022-10-02T11:50:07.148Z,5.65
2022-10-02T11:51:07.147Z,5.65
2022-10-02T11:52:07.144Z,4.24
2022-10-02T11:53:07.156Z,4.24
2022-10-02T11:54:07.155Z,4.24
2022-10-02T11:55:07.141Z,4.24
2022-10-02T11:56:07.142Z,4.24
2022-10-02T11:57:07.141Z,2.82
2022-10-02T11:58:07.147Z,2.82
2022-10-02T11:59:07.149Z,2.82
2022-10-02T12:00:07.148Z,2.82
2022-10-02T12:01:07.155Z,2.82
2022-10-02T12:02:07.231Z,2.82
2022-10-02T12:03:07.243Z,2.82
2022-10-02T12:04:07.165Z,2.82
2022-10-02T12:05:07.151Z,2.82
2022-10-02T12:06:07.147Z,2.82
2022-10-02T12:07:07.159Z,2.82
2022-10-02T12:08:07.155Z,2.82
2022-10-02T12:09:07.157Z,2.82
2022-10-02T12:10:07.155Z,2.82
2022-10-02T12:11:07.152Z,2.82
2022-10-02T12:12:07.163Z,2.82
2022-10-02T12:13:07.161Z,2.82
2022-10-02T12:14:07.146Z,2.82
2022-10-02T12:15:07.151Z,2.82
2022-10-02T12:16:07.178Z,2.82
2022-10-02T12:17:07.159Z,2.82
2022-10-02T12:18:07.163Z,2.82
2022-10-02T12:19:07.185Z,2.82
2022-10-02T12:20:07.158Z,2.82
2022-10-02T12:21:07.159Z,2.82
2022-10-02T12:22:07.161Z,2.82
2022-10-02T12:23:07.162Z,2.82
2022-10-02T12:24:07.172Z,2.82
2022-10-02T12:25:07.173Z,2.82
2022-10-02T12:26:07.174Z,2.82
2022-10-02T12:27:07.168Z,2.82
2022-10-02T12:28:07.217Z,2.82
2022-10-02T12:29:07.174Z,2.82
2022-10-02T12:30:07.175Z,2.82
2022-10-02T12:31:07.186Z,2.82
2022-10-02T12:32:07.202Z,2.82
2022-10-02T12:33:07.171Z,2.82
2022-10-02T12:34:07.178Z,2.82
2022-10-02T12:35:07.189Z,146.82
2022-10-02T12:36:07.173Z,146.82